Time;durP1;ratioP1;P1;durP2;ratioP2;P2;SDS_P1;SDS_P2;PMS_P1;PMS_P2;Temp;Humidity;BMP_temperature;BMP_pressure;BME280_temperature;BME280_humidity;BME280_pressure;Samples;Min_cycle;Max_cycle;Signal;HPM_P1;HPM_P2
2022/11/05 00:16:59;;;;;;;1.70;0.93;;;18.80;63.80;;;;;;4970813;28;43580;-64
2022/11/05 00:19:26;;;;;;;2.28;1.10;;;18.80;63.80;;;;;;4975124;28;43707;-65
2022/11/05 00:27:25;;;;;;;1.33;1.23;;;18.80;63.80;;;;;;4970965;28;43518;-64
2022/11/05 00:29:52;;;;;;;1.30;1.10;;;18.80;63.80;;;;;;4976602;28;44020;-65
2022/11/05 00:32:22;;;;;;;1.25;0.90;;;18.70;63.80;;;;;;4980796;28;43939;-64
2022/11/05 00:34:49;;;;;;;1.20;1.00;;;18.70;63.70;;;;;;4974335;28;43510;-65
2022/11/05 00:37:16;;;;;;;1.65;0.90;;;18.70;63.80;;;;;;4974513;28;43397;-64
2022/11/05 00:39:44;;;;;;;2.03;1.10;;;18.70;63.70;;;;;;4976046;28;44943;-64
2022/11/05 00:45:00;;;;;;;1.67;1.10;;;18.70;63.80;;;;;;4975133;28;43522;-65
2022/11/05 00:50:14;;;;;;;2.03;1.10;;;18.70;63.80;;;;;;4970238;28;44058;-64
2022/11/05 00:53:00;;;;;;;1.80;1.20;;;18.70;63.80;;;;;;4975551;28;43535;-65
2022/11/05 00:55:45;;;;;;;1.77;1.08;;;18.60;63.70;;;;;;4976368;28;43416;-64
2022/11/05 00:58:17;;;;;;;1.27;0.95;;;18.60;63.70;;;;;;4972020;28;43497;-64
2022/11/05 01:00:49;;;;;;;1.67;1.05;;;18.60;63.70;;;;;;4974744;28;44143;-64
2022/11/05 01:03:19;;;;;;;1.40;1.30;;;18.60;63.70;;;;;;4974897;28;44423;-64
2022/11/05 01:05:49;;;;;;;1.50;1.20;;;18.60;63.60;;;;;;4975250;28;43477;-64
2022/11/05 01:08:19;;;;;;;1.35;1.25;;;18.60;63.60;;;;;;4974801;28;43498;-64
2022/11/05 01:10:49;;;;;;;1.35;1.15;;;18.60;63.60;;;;;;4972594;28;44806;-64
2022/11/05 01:13:22;;;;;;;1.90;1.40;;;18.60;63.60;;;;;;4971778;28;43503;-64
2022/11/05 01:15:50;;;;;;;1.67;1.02;;;18.60;63.60;;;;;;4969562;28;43430;-64
2022/11/05 01:18:19;;;;;;;1.23;1.10;;;18.60;63.70;;;;;;4975256;28;43602;-64
2022/11/05 01:20:47;;;;;;;1.25;1.00;;;18.60;63.60;;;;;;4971961;28;44870;-64
2022/11/05 01:23:14;;;;;;;1.45;1.15;;;18.60;63.70;;;;;;4975138;28;43792;-64
2022/11/05 01:25:43;;;;;;;1.60;1.10;;;18.60;63.60;;;;;;4978992;28;43404;-65
2022/11/05 01:28:10;;;;;;;1.52;1.02;;;18.50;63.60;;;;;;4978613;28;43522;-65
2022/11/05 01:30:38;;;;;;;1.08;0.90;;;18.50;63.60;;;;;;4967800;28;44373;-64
2022/11/05 01:33:06;;;;;;;1.30;1.10;;;18.50;63.50;;;;;;4974487;28;43478;-64
2022/11/05 01:35:33;;;;;;;1.55;1.08;;;18.50;63.60;;;;;;4976135;28;43509;-64
2022/11/05 01:38:01;;;;;;;2.05;1.20;;;18.50;63.60;;;;;;4983226;28;43544;-64
2022/11/05 01:40:28;;;;;;;1.42;1.20;;;18.50;63.60;;;;;;4974641;28;43965;-64
2022/11/05 01:42:56;;;;;;;2.10;1.30;;;18.50;63.60;;;;;;4975504;28;43965;-64
2022/11/05 01:45:26;;;;;;;1.92;1.30;;;18.50;63.60;;;;;;4977534;28;43428;-63
2022/11/05 01:47:55;;;;;;;2.22;1.52;;;18.50;63.60;;;;;;4979662;28;43609;-64
2022/11/05 01:50:46;;;;;;;1.55;1.17;;;18.50;63.60;;;;;;4980193;28;44190;-64
2022/11/05 01:53:23;;;;;;;1.27;1.17;;;18.50;63.50;;;;;;4973219;28;43966;-64
2022/11/05 01:56:05;;;;;;;1.77;1.20;;;18.50;63.60;;;;;;4979013;28;43473;-65
2022/11/05 01:58:59;;;;;;;1.20;1.10;;;18.40;63.50;;;;;;4979648;28;43610;-64
2022/11/05 02:01:27;;;;;;;1.38;1.20;;;18.50;63.60;;;;;;4977176;28;43946;-64
2022/11/05 02:04:00;;;;;;;1.83;1.10;;;18.40;63.50;;;;;;4974233;28;44403;-65
2022/11/05 02:06:31;;;;;;;1.42;1.10;;;18.40;63.60;;;;;;4974381;28;43434;-64
2022/11/05 02:09:00;;;;;;;;;;;18.40;63.60;;;;;;4975830;28;43392;-64
2022/11/05 02:11:28;;;;;;;1.38;0.90;;;18.40;63.60;;;;;;4974950;28;44168;-64
2022/11/05 02:13:55;;;;;;;1.75;1.10;;;18.40;63.60;;;;;;4980683;28;43435;-64
2022/11/05 02:16:36;;;;;;;1.40;1.10;;;18.40;63.60;;;;;;4975122;28;43411;-64
2022/11/05 02:19:33;;;;;;;0.90;0.88;;;18.30;63.50;;;;;;4977675;28;43528;-64
2022/11/05 02:22:41;;;;;;;1.10;0.88;;;18.40;63.60;;;;;;4945576;28;44041;-64
2022/11/05 02:25:12;;;;;;;0.98;0.80;;;18.30;63.50;;;;;;4976825;28;43545;-64
2022/11/05 02:27:51;;;;;;;1.10;0.95;;;18.30;63.60;;;;;;4973755;28;43975;-64
2022/11/05 02:30:54;;;;;;;1.27;1.02;;;18.30;63.50;;;;;;4976409;28;43587;-64
2022/11/05 02:33:55;;;;;;;1.23;1.13;;;18.30;63.60;;;;;;4949820;28;43809;-64
2022/11/05 02:36:38;;;;;;;;;;;18.30;63.50;;;;;;4955906;28;43429;-64
2022/11/05 02:39:24;;;;;;;1.55;1.10;;;18.30;63.60;;;;;;4977050;28;43372;-64
2022/11/05 02:42:10;;;;;;;0.70;0.70;;;18.30;63.70;;;;;;4974190;28;43567;-65
2022/11/05 02:44:44;;;;;;;0.98;0.90;;;18.30;63.60;;;;;;4980549;28;44022;-64
2022/11/05 02:47:21;;;;;;;1.33;1.23;;;18.30;63.70;;;;;;4972809;28;44511;-64
2022/11/05 02:50:07;;;;;;;1.05;0.95;;;18.30;63.60;;;;;;4979982;28;43545;-65
2022/11/05 02:52:49;;;;;;;0.85;0.85;;;18.30;63.70;;;;;;4977271;28;43645;-64
2022/11/05 02:55:20;;;;;;;0.85;0.85;;;18.30;63.60;;;;;;4978676;28;43994;-64
2022/11/05 02:57:47;;;;;;;1.23;0.98;;;18.30;63.60;;;;;;4975621;28;43452;-64
2022/11/05 03:00:37;;;;;;;1.20;1.08;;;18.30;63.60;;;;;;4977231;28;43387;-64
2022/11/05 03:03:28;;;;;;;0.95;0.80;;;18.30;63.50;;;;;;4975868;28;43550;-64
2022/11/05 03:06:16;;;;;;;1.20;1.10;;;18.20;63.60;;;;;;4971997;28;45178;-64
2022/11/05 03:08:59;;;;;;;1.05;1.00;;;18.20;63.60;;;;;;4971384;28;45308;-64
2022/11/05 03:11:30;;;;;;;1.13;0.82;;;18.20;63.50;;;;;;4974364;28;43380;-64
2022/11/05 03:14:09;;;;;;;0.80;0.80;;;18.20;63.60;;;;;;4977136;28;43505;-64
2022/11/05 03:16:41;;;;;;;1.00;0.90;;;18.20;63.60;;;;;;4973924;28;43756;-64
2022/11/05 03:19:21;;;;;;;1.38;1.02;;;18.20;63.60;;;;;;4977425;28;43429;-64
2022/11/05 03:22:29;;;;;;;1.63;1.10;;;18.20;63.50;;;;;;4970839;28;43468;-64
2022/11/05 03:25:04;;;;;;;1.00;0.88;;;18.20;63.50;;;;;;4973068;28;44099;-64
2022/11/05 03:27:36;;;;;;;1.80;0.90;;;18.20;63.60;;;;;;4973773;28;43669;-64
2022/11/05 03:30:08;;;;;;;;;;;18.10;63.50;;;;;;4976974;28;43420;-64
2022/11/05 03:32:40;;;;;;;0.98;0.95;;;18.20;63.60;;;;;;4979693;28;43407;-64
2022/11/05 03:35:15;;;;;;;1.35;1.15;;;18.10;63.60;;;;;;4974940;28;43480;-64
2022/11/05 03:37:46;;;;;;;1.80;0.70;;;18.10;63.60;;;;;;4975794;28;44749;-64
2022/11/05 03:40:17;;;;;;;1.15;0.70;;;18.10;63.60;;;;;;4975172;28;43523;-64
2022/11/05 03:42:49;;;;;;;0.90;0.90;;;18.10;63.60;;;;;;4972553;28;43387;-64
2022/11/05 03:45:25;;;;;;;1.08;0.77;;;18.10;63.60;;;;;;4969731;28;43511;-64
2022/11/05 03:47:58;;;;;;;1.00;0.80;;;18.10;63.70;;;;;;4978179;28;43911;-64
2022/11/05 03:50:43;;;;;;;0.80;0.80;;;18.10;63.70;;;;;;4975613;28;43413;-64
2022/11/05 03:53:15;;;;;;;1.10;1.00;;;18.10;63.60;;;;;;4976877;28;43437;-64
2022/11/05 03:56:22;;;;;;;0.75;0.70;;;18.10;63.70;;;;;;4975412;28;43440;-64
2022/11/05 03:58:50;;;;;;;0.82;0.80;;;18.10;63.70;;;;;;4973215;28;43649;-65
2022/11/05 04:01:25;;;;;;;1.10;0.77;;;18.00;63.70;;;;;;4981492;28;43485;-65
2022/11/05 04:03:53;;;;;;;1.10;1.00;;;18.00;63.70;;;;;;4973462;28;43413;-64
2022/11/05 04:14:39;;;;;;;1.60;1.00;;;18.00;63.70;;;;;;4975244;28;43479;-64
2022/11/05 04:17:08;;;;;;;0.77;0.75;;;18.00;63.70;;;;;;4981090;28;43533;-64
2022/11/05 04:25:16;;;;;;;1.52;1.02;;;18.00;63.70;;;;;;4975216;28;43428;-65
2022/11/05 04:27:44;;;;;;;0.88;0.80;;;17.90;63.70;;;;;;4977917;28;43502;-65
2022/11/05 04:30:20;;;;;;;1.13;0.90;;;17.90;63.80;;;;;;4974246;28;43697;-64
2022/11/05 04:33:20;;;;;;;1.00;0.80;;;17.90;63.70;;;;;;4974154;28;43706;-64
2022/11/05 04:35:48;;;;;;;1.30;0.82;;;17.90;63.70;;;;;;4943674;28;43498;-64
2022/11/05 04:38:19;;;;;;;1.08;0.90;;;17.90;63.80;;;;;;4975034;28;43654;-64
2022/11/05 04:40:47;;;;;;;1.20;0.80;;;17.90;63.80;;;;;;4972578;28;43613;-64
2022/11/05 04:43:17;;;;;;;1.10;0.75;;;17.90;63.80;;;;;;4973536;28;43500;-63
2022/11/05 04:45:45;;;;;;;1.10;1.00;;;17.90;63.80;;;;;;4977801;28;43391;-64
2022/11/05 04:48:13;;;;;;;0.80;0.80;;;17.90;63.80;;;;;;4980622;28;43600;-64
2022/11/05 04:50:40;;;;;;;0.68;0.60;;;17.90;63.90;;;;;;4975612;28;44718;-64
2022/11/05 04:53:07;;;;;;;1.23;0.82;;;17.90;63.90;;;;;;4972532;28;43482;-64
2022/11/05 04:55:35;;;;;;;1.40;0.80;;;17.90;63.80;;;;;;4971121;28;43464;-64
2022/11/05 04:58:03;;;;;;;0.70;0.70;;;17.90;63.80;;;;;;4979150;28;43588;-64
2022/11/05 05:00:30;;;;;;;0.70;0.70;;;17.90;63.80;;;;;;4977833;28;44109;-64
2022/11/05 05:02:58;;;;;;;0.77;0.70;;;17.80;63.80;;;;;;4975991;28;43969;-64
2022/11/05 05:05:25;;;;;;;1.10;0.88;;;17.80;63.80;;;;;;4975130;28;43438;-65
2022/11/05 05:07:52;;;;;;;1.55;0.80;;;17.80;63.80;;;;;;4983849;28;43530;-64
2022/11/05 05:10:20;;;;;;;1.58;0.70;;;17.80;63.80;;;;;;4978624;28;44966;-64
2022/11/05 05:12:47;;;;;;;2.15;1.00;;;17.80;63.80;;;;;;4975906;28;43436;-65
2022/11/05 05:15:15;;;;;;;1.13;1.02;;;17.80;63.80;;;;;;4974615;28;43411;-64
2022/11/05 05:17:42;;;;;;;1.88;1.00;;;17.80;63.80;;;;;;4983950;28;43545;-65
2022/11/05 05:22:55;;;;;;;1.48;0.80;;;17.80;63.90;;;;;;4979796;28;43529;-64
2022/11/05 05:25:23;;;;;;;0.88;0.80;;;17.80;63.80;;;;;;4977552;28;43431;-64
2022/11/05 05:27:50;;;;;;;0.65;0.65;;;17.80;63.80;;;;;;4977625;28;43339;-64
2022/11/05 05:30:17;;;;;;;0.80;0.60;;;17.80;63.80;;;;;;4966075;28;44913;-64
2022/11/05 05:32:45;;;;;;;0.65;0.65;;;17.80;63.90;;;;;;4974864;28;43444;-64
2022/11/05 05:35:12;;;;;;;0.70;0.70;;;17.80;63.90;;;;;;4976943;28;43460;-64
2022/11/05 05:37:40;;;;;;;1.95;0.80;;;17.80;63.80;;;;;;4975687;28;43492;-64
2022/11/05 05:40:08;;;;;;;0.70;0.60;;;17.80;63.80;;;;;;4977508;28;44047;-65
2022/11/05 05:42:35;;;;;;;0.80;0.65;;;17.80;63.80;;;;;;4978795;28;43449;-61
2022/11/05 05:45:10;;;;;;;0.85;0.55;;;17.80;64.40;;;;;;4978917;28;43475;-60
2022/11/05 05:47:37;;;;;;;1.05;0.85;;;17.80;65.20;;;;;;4982477;28;43419;-63
2022/11/05 05:50:05;;;;;;;0.77;0.60;;;17.90;64.10;;;;;;4975839;28;43831;-64
2022/11/05 05:52:32;;;;;;;0.98;0.70;;;17.90;64.00;;;;;;4979288;28;43368;-64
2022/11/05 05:55:00;;;;;;;1.02;0.90;;;17.90;63.90;;;;;;4981868;28;43432;-64
2022/11/05 05:57:27;;;;;;;0.47;0.47;;;17.90;63.80;;;;;;4977531;28;43545;-64
2022/11/05 05:59:55;;;;;;;0.85;0.70;;;17.90;63.80;;;;;;4976321;28;44073;-64
2022/11/05 06:02:22;;;;;;;0.80;0.60;;;17.90;63.80;;;;;;4976736;28;43937;-64
2022/11/05 06:04:50;;;;;;;0.95;0.70;;;17.80;63.70;;;;;;4981022;28;43544;-64
2022/11/05 06:07:17;;;;;;;0.70;0.70;;;17.80;63.80;;;;;;4979605;28;43647;-64
2022/11/05 06:09:44;;;;;;;0.60;0.60;;;17.80;63.80;;;;;;4973329;28;44035;-65
2022/11/05 06:12:12;;;;;;;1.10;0.80;;;17.90;63.70;;;;;;4978134;28;43373;-64
2022/11/05 06:14:39;;;;;;;1.00;0.60;;;17.90;63.70;;;;;;4983502;28;43431;-64
2022/11/05 06:17:07;;;;;;;0.73;0.60;;;17.90;63.60;;;;;;4975107;28;43480;-64
2022/11/05 06:19:34;;;;;;;0.85;0.85;;;17.90;63.60;;;;;;4973608;28;44829;-64
2022/11/05 06:22:01;;;;;;;0.73;0.60;;;17.90;63.60;;;;;;4980526;28;43441;-65
2022/11/05 06:24:29;;;;;;;0.50;0.50;;;17.90;63.60;;;;;;4975549;28;43506;-65
2022/11/05 06:26:56;;;;;;;0.82;0.60;;;17.90;63.70;;;;;;4981616;28;43535;-65
2022/11/05 06:29:24;;;;;;;0.75;0.75;;;17.90;63.70;;;;;;4975402;28;43872;-65
2022/11/05 06:31:51;;;;;;;0.65;0.60;;;17.90;63.80;;;;;;4980781;28;43413;-65
2022/11/05 06:34:18;;;;;;;0.60;0.60;;;17.90;63.80;;;;;;4977670;28;43478;-64
2022/11/05 06:36:46;;;;;;;0.98;0.70;;;17.90;63.80;;;;;;4978108;28;43467;-65
2022/11/05 06:39:13;;;;;;;1.52;0.60;;;17.90;63.80;;;;;;4975300;28;44982;-65
2022/11/05 06:41:42;;;;;;;1.00;0.73;;;17.90;63.80;;;;;;4982311;28;43388;-65
2022/11/05 06:44:30;;;;;;;0.80;0.60;;;17.90;63.80;;;;;;4972227;28;43558;-65
2022/11/05 06:46:59;;;;;;;0.50;0.50;;;17.90;63.80;;;;;;4959491;28;43497;-66
2022/11/05 06:49:26;;;;;;;0.65;0.65;;;17.90;63.80;;;;;;4980086;28;45039;-64
2022/11/05 06:51:53;;;;;;;0.47;0.45;;;17.90;63.80;;;;;;4976147;28;43999;-64
2022/11/05 06:54:21;;;;;;;0.90;0.60;;;17.90;63.80;;;;;;4980071;28;43405;-65
2022/11/05 06:56:48;;;;;;;0.60;0.60;;;17.90;63.70;;;;;;4973209;28;43507;-65
2022/11/05 06:59:16;;;;;;;0.70;0.60;;;17.90;63.70;;;;;;4975262;28;43773;-65
2022/11/05 07:01:43;;;;;;;0.60;0.60;;;17.90;63.70;;;;;;4978479;28;43480;-64
2022/11/05 07:04:11;;;;;;;1.25;0.60;;;18.00;63.70;;;;;;4974107;28;43548;-64
2022/11/05 07:06:39;;;;;;;0.88;0.80;;;18.00;63.70;;;;;;4975409;28;43380;-64
2022/11/05 07:09:06;;;;;;;0.70;0.70;;;18.00;63.70;;;;;;4978695;28;45102;-64
2022/11/05 07:11:33;;;;;;;0.60;0.60;;;18.00;63.60;;;;;;4976413;28;43408;-64
2022/11/05 07:14:01;;;;;;;0.90;0.80;;;18.00;63.60;;;;;;4978435;28;43432;-64
2022/11/05 07:16:28;;;;;;;0.60;0.60;;;18.00;63.60;;;;;;4974820;28;44098;-67
2022/11/05 07:18:56;;;;;;;0.50;0.50;;;18.00;63.60;;;;;;4980575;28;44835;-64
2022/11/05 07:21:23;;;;;;;0.65;0.60;;;18.00;63.60;;;;;;4974922;28;43825;-65
2022/11/05 07:23:51;;;;;;;0.85;0.50;;;18.00;63.60;;;;;;4976586;28;43468;-60
2022/11/05 07:26:18;;;;;;;1.80;0.80;;;18.00;64.90;;;;;;4983675;28;43552;-62
2022/11/05 07:28:45;;;;;;;0.80;0.75;;;18.10;64.10;;;;;;4976779;28;44961;-63
2022/11/05 07:31:13;;;;;;;1.90;0.60;;;18.10;63.50;;;;;;4975648;28;44024;-63
2022/11/05 07:33:40;;;;;;;1.38;0.70;;;18.10;63.50;;;;;;4985343;28;43460;-63
2022/11/05 07:36:08;;;;;;;0.98;0.60;;;18.10;63.40;;;;;;4977549;28;43471;-63
2022/11/05 07:38:35;;;;;;;1.95;0.82;;;18.20;63.40;;;;;;4978875;28;43733;-63
2022/11/05 07:41:03;;;;;;;1.38;0.80;;;18.20;63.20;;;;;;4976450;28;43444;-63
2022/11/05 07:43:31;;;;;;;0.63;0.50;;;18.20;63.30;;;;;;4975563;28;43462;-62
2022/11/05 07:45:58;;;;;;;0.68;0.68;;;18.30;63.10;;;;;;4978361;28;43419;-63
2022/11/05 07:48:26;;;;;;;0.85;0.70;;;18.30;63.10;;;;;;4977548;28;44780;-63
2022/11/05 07:50:53;;;;;;;1.75;0.70;;;18.30;63.10;;;;;;4974999;28;43477;-63
2022/11/05 07:53:20;;;;;;;1.40;0.90;;;18.30;63.70;;;;;;4976516;28;43440;-63
2022/11/05 07:55:48;;;;;;;1.95;0.82;;;18.40;62.90;;;;;;4978557;28;43511;-63
2022/11/05 07:58:15;;;;;;;0.93;0.68;;;18.40;62.80;;;;;;4981256;28;44989;-62
2022/11/05 08:00:44;;;;;;;0.63;0.63;;;18.40;62.70;;;;;;4977177;28;43516;-62
2022/11/05 08:03:16;;;;;;;1.15;0.73;;;18.40;62.70;;;;;;4980092;28;43433;-63
2022/11/05 08:05:46;;;;;;;1.08;0.75;;;18.40;62.70;;;;;;4972519;28;43376;-63
2022/11/05 08:08:17;;;;;;;1.13;0.65;;;18.50;62.80;;;;;;4979878;28;43741;-63
2022/11/05 08:10:45;;;;;;;0.73;0.70;;;18.50;62.70;;;;;;4973925;28;43685;-64
2022/11/05 08:13:13;;;;;;;0.80;0.73;;;18.50;62.70;;;;;;4976393;28;43578;-63
2022/11/05 08:15:41;;;;;;;0.70;0.70;;;18.50;62.70;;;;;;4974212;28;43447;-63
2022/11/05 08:18:16;;;;;;;1.63;0.85;;;18.50;62.60;;;;;;4979948;28;44302;-63
2022/11/05 08:20:45;;;;;;;0.70;0.70;;;18.50;62.70;;;;;;4975712;28;43540;-62
2022/11/05 08:23:13;;;;;;;1.00;0.90;;;18.50;62.70;;;;;;4976109;28;43424;-63
2022/11/05 08:25:41;;;;;;;1.50;0.73;;;18.50;62.70;;;;;;4976135;28;43453;-64
2022/11/05 08:28:11;;;;;;;0.90;0.90;;;18.60;62.70;;;;;;4975749;28;44954;-62
2022/11/05 08:30:39;;;;;;;3.60;2.75;;;18.50;62.70;;;;;;4979708;28;44042;-62
2022/11/05 08:33:09;;;;;;;9.80;9.02;;;18.50;62.90;;;;;;4979514;28;43380;-62
2022/11/05 08:35:38;;;;;;;10.20;9.10;;;18.50;63.00;;;;;;4982688;28;43464;-63
2022/11/05 08:38:07;;;;;;;8.02;7.22;;;18.50;63.10;;;;;;4978949;28;44611;-62
2022/11/05 08:40:36;;;;;;;6.40;5.80;;;18.50;63.10;;;;;;4978732;28;44054;-63
2022/11/05 08:43:05;;;;;;;5.82;5.22;;;18.60;63.20;;;;;;4979048;28;43397;-63
2022/11/05 08:45:36;;;;;;;5.55;4.65;;;18.70;62.90;;;;;;4978657;28;43518;-63
2022/11/05 08:48:20;;;;;;;5.20;4.70;;;18.90;62.80;;;;;;4981393;28;44982;-62
2022/11/05 08:50:48;;;;;;;4.72;4.32;;;19.10;65.00;;;;;;4991109;28;43817;-64
2022/11/05 08:53:16;;;;;;;5.13;3.75;;;19.30;62.60;;;;;;4980462;28;43469;-64
2022/11/05 08:55:46;;;;;;;3.90;3.50;;;19.40;62.20;;;;;;4978721;28;43435;-64
2022/11/05 08:58:15;;;;;;;4.65;3.40;;;19.50;61.90;;;;;;4982575;28;44020;-63
2022/11/05 09:00:45;;;;;;;3.58;3.00;;;19.70;61.70;;;;;;4977383;28;43893;-64
2022/11/05 09:03:13;;;;;;;5.55;3.05;;;19.90;61.60;;;;;;4983109;28;43403;-63
2022/11/05 09:05:41;;;;;;;3.88;3.05;;;20.00;61.40;;;;;;4986226;28;43489;-63
2022/11/05 09:08:20;;;;;;;3.05;2.75;;;20.20;61.20;;;;;;4978000;28;44312;-63
2022/11/05 09:10:48;;;;;;;3.28;2.78;;;20.30;61.10;;;;;;4975452;28;43462;-63
2022/11/05 09:13:16;;;;;;;3.28;2.65;;;20.40;60.80;;;;;;4978509;28;43469;-64
2022/11/05 09:15:50;;;;;;;3.38;2.72;;;20.60;60.70;;;;;;4984483;28;43425;-63
2022/11/05 09:18:18;;;;;;;2.70;2.50;;;20.70;60.60;;;;;;4979956;28;44717;-63
2022/11/05 09:20:46;;;;;;;2.85;2.33;;;20.70;60.40;;;;;;4974713;28;43861;-64
2022/11/05 09:23:14;;;;;;;4.13;2.20;;;20.90;60.20;;;;;;4982208;28;43416;-63
2022/11/05 09:25:43;;;;;;;2.40;2.20;;;21.00;60.20;;;;;;4984870;28;43496;-64
2022/11/05 09:28:17;;;;;;;2.20;1.98;;;21.10;60.10;;;;;;4977272;28;44066;-63
2022/11/05 09:30:47;;;;;;;2.20;1.92;;;21.20;59.90;;;;;;4978869;28;43523;-65
2022/11/05 09:33:16;;;;;;;3.13;2.50;;;21.30;59.80;;;;;;4983119;28;43356;-64
2022/11/05 09:35:43;;;;;;;2.25;2.00;;;21.40;59.70;;;;;;4976772;28;43585;-63
2022/11/05 09:38:11;;;;;;;2.10;1.85;;;21.50;59.60;;;;;;4981154;28;44960;-64
2022/11/05 09:40:42;;;;;;;2.42;1.80;;;21.60;59.40;;;;;;4976624;28;43688;-64
2022/11/05 09:43:17;;;;;;;2.25;2.05;;;21.70;59.30;;;;;;4983132;28;43445;-62
2022/11/05 09:45:49;;;;;;;2.95;1.90;;;21.70;59.10;;;;;;4978210;28;43607;-63
2022/11/05 09:48:20;;;;;;;3.38;1.98;;;21.80;59.00;;;;;;4980385;28;45045;-63
2022/11/05 09:50:49;;;;;;;2.33;1.73;;;22.00;59.00;;;;;;4980997;28;43439;-65
2022/11/05 09:53:18;;;;;;;3.75;1.98;;;22.10;58.70;;;;;;4984480;28;43415;-66
2022/11/05 09:55:49;;;;;;;2.03;1.50;;;22.20;58.70;;;;;;4973710;28;43485;-63
2022/11/05 09:58:19;;;;;;;2.38;1.67;;;22.30;58.60;;;;;;4979462;28;44138;-63
2022/11/05 10:00:56;;;;;;;1.55;1.45;;;22.40;58.30;;;;;;4978168;28;43499;-63
2022/11/05 10:03:25;;;;;;;2.72;1.60;;;22.60;58.10;;;;;;4975368;28;43468;-63
2022/11/05 10:06:06;;;;;;;1.70;1.30;;;22.60;57.80;;;;;;4973000;28;43566;-63
2022/11/05 10:08:42;;;;;;;1.50;1.40;;;22.70;57.90;;;;;;4978524;28;43959;-63
2022/11/05 10:11:18;;;;;;;2.08;1.40;;;22.80;57.70;;;;;;4982990;28;44029;-63
2022/11/05 10:14:05;;;;;;;2.85;1.63;;;22.90;57.70;;;;;;4974533;28;43484;-63
2022/11/05 10:16:39;;;;;;;1.73;1.63;;;22.90;57.30;;;;;;4977905;28;43640;-63
2022/11/05 10:19:12;;;;;;;1.60;1.40;;;23.00;57.40;;;;;;4981363;28;43805;-63
2022/11/05 10:21:39;;;;;;;1.85;1.50;;;23.00;57.50;;;;;;4979858;28;43465;-63
2022/11/05 10:24:27;;;;;;;1.48;1.38;;;23.00;57.40;;;;;;4976784;28;43656;-63
2022/11/05 10:26:56;;;;;;;2.45;1.58;;;23.10;57.30;;;;;;4979565;28;43457;-63
2022/11/05 10:29:32;;;;;;;1.55;1.40;;;23.00;57.30;;;;;;4978597;28;45014;-63
2022/11/05 10:32:04;;;;;;;1.98;1.30;;;23.00;57.30;;;;;;4975664;28;43417;-63
2022/11/05 10:34:34;;;;;;;2.67;1.40;;;23.00;57.40;;;;;;4977134;28;43430;-63
2022/11/05 10:37:03;;;;;;;1.45;1.35;;;23.00;57.50;;;;;;4976393;28;43525;-62
2022/11/05 10:39:32;;;;;;;1.55;1.40;;;22.90;57.50;;;;;;4977689;28;43796;-63
2022/11/05 10:42:36;;;;;;;3.20;1.65;;;22.90;57.60;;;;;;4979865;28;43808;-63
2022/11/05 10:45:12;;;;;;;3.50;1.67;;;22.90;57.60;;;;;;4975389;28;43532;-63
2022/11/05 10:47:49;;;;;;;2.97;1.50;;;22.80;57.70;;;;;;4983225;28;43411;-63
2022/11/05 10:50:24;;;;;;;4.53;1.65;;;22.80;57.80;;;;;;4982505;28;44748;-62
2022/11/05 10:52:51;;;;;;;2.60;1.70;;;22.70;58.00;;;;;;4973110;28;43947;-63
2022/11/05 10:55:29;;;;;;;3.53;1.65;;;22.60;58.00;;;;;;4976257;28;43491;-62
2022/11/05 10:58:14;;;;;;;2.72;1.67;;;22.60;58.20;;;;;;4983715;28;43510;-62
2022/11/05 11:00:44;;;;;;;2.28;1.60;;;22.60;58.30;;;;;;4979471;28;43805;-63
2022/11/05 11:03:51;;;;;;;2.15;1.45;;;22.50;58.40;;;;;;4974426;28;43413;-62
2022/11/05 11:06:24;;;;;;;3.28;1.90;;;22.50;58.50;;;;;;4940761;28;43510;-63
2022/11/05 11:08:55;;;;;;;4.40;1.75;;;22.40;58.50;;;;;;4939362;28;43456;-63
2022/11/05 11:11:35;;;;;;;4.78;1.90;;;22.40;58.70;;;;;;4963973;28;43877;-62
2022/11/05 11:14:12;;;;;;;2.40;1.60;;;22.40;58.80;;;;;;4981708;28;43696;-63
2022/11/05 11:16:42;;;;;;;2.70;1.85;;;22.40;58.90;;;;;;4981458;28;43447;-63
2022/11/05 11:19:30;;;;;;;3.83;2.15;;;22.40;59.00;;;;;;4996659;28;43479;-62
2022/11/05 11:22:19;;;;;;;3.60;1.80;;;22.40;59.00;;;;;;4978745;28;43973;-63
2022/11/05 11:24:52;;;;;;;2.85;1.90;;;22.40;59.00;;;;;;4979504;28;43471;-63
2022/11/05 11:27:26;;;;;;;2.72;1.88;;;22.40;59.10;;;;;;4981427;28;43456;-63
2022/11/05 11:30:02;;;;;;;3.95;2.10;;;22.40;59.10;;;;;;4976764;28;43420;-64
2022/11/05 11:32:38;;;;;;;3.65;1.90;;;22.40;59.20;;;;;;4981326;28;45117;-62
2022/11/05 11:35:16;;;;;;;4.25;2.15;;;22.40;59.20;;;;;;4976322;28;43517;-62
2022/11/05 11:37:45;;;;;;;2.42;2.17;;;22.40;59.20;;;;;;4973617;28;43412;-62
2022/11/05 11:40:28;;;;;;;4.18;2.03;;;22.40;59.30;;;;;;4980515;28;43428;-62
2022/11/05 11:42:59;;;;;;;3.67;2.10;;;22.40;59.40;;;;;;4980913;28;44658;-63
2022/11/05 11:45:35;;;;;;;4.53;2.33;;;22.30;59.40;;;;;;4976494;28;43515;-62
2022/11/05 11:48:07;;;;;;;4.78;1.90;;;22.30;59.70;;;;;;4973171;28;43495;-61
2022/11/05 11:50:43;;;;;;;3.10;2.08;;;22.30;59.40;;;;;;4978924;28;44069;-62
2022/11/05 11:53:19;;;;;;;4.15;2.20;;;22.30;59.50;;;;;;4981898;28;43784;-63
2022/11/05 11:56:01;;;;;;;3.05;2.20;;;22.20;59.60;;;;;;4972273;28;43648;-63
2022/11/05 11:59:01;;;;;;;3.17;1.95;;;22.20;59.70;;;;;;4976915;28;43414;-62
2022/11/05 12:01:43;;;;;;;2.90;1.92;;;22.20;59.70;;;;;;4963803;28;43453;-62
2022/11/05 12:04:48;;;;;;;4.35;2.30;;;22.20;59.70;;;;;;4973022;28;43737;-63
2022/11/05 12:07:48;;;;;;;2.83;2.22;;;22.20;59.70;;;;;;4974075;28;43380;-63
2022/11/05 12:10:27;;;;;;;3.13;1.95;;;22.20;59.80;;;;;;4980551;28;43463;-63
2022/11/05 12:13:21;;;;;;;2.70;2.03;;;22.20;59.80;;;;;;4975891;28;43806;-63
2022/11/05 12:16:04;;;;;;;4.00;2.33;;;22.20;59.80;;;;;;4971159;28;44083;-63
2022/11/05 12:18:40;;;;;;;3.25;2.00;;;22.20;59.90;;;;;;4973225;28;43448;-63
2022/11/05 12:21:17;;;;;;;2.22;1.80;;;22.10;59.80;;;;;;4981173;28;43416;-63
2022/11/05 12:24:42;;;;;;;3.92;1.90;;;22.10;59.90;;;;;;4978778;28;43632;-63
2022/11/05 12:27:28;;;;;;;3.10;1.80;;;22.10;60.00;;;;;;4972531;28;44250;-63
2022/11/05 12:30:06;;;;;;;3.08;1.90;;;22.00;60.00;;;;;;4979236;28;43503;-63
2022/11/05 12:32:40;;;;;;;4.22;2.00;;;22.00;60.00;;;;;;4980871;28;44019;-63
2022/11/05 12:35:25;;;;;;;4.18;1.98;;;22.00;60.10;;;;;;4971720;28;43494;-62
2022/11/05 12:37:59;;;;;;;2.42;1.77;;;22.00;60.20;;;;;;4979311;28;44028;-63
2022/11/05 12:41:11;;;;;;;2.38;1.83;;;22.00;60.30;;;;;;4975809;28;43524;-63
2022/11/05 12:43:45;;;;;;;2.72;1.83;;;21.90;60.30;;;;;;4970690;28;43506;-63
2022/11/05 12:46:19;;;;;;;3.85;1.88;;;21.80;60.40;;;;;;4974478;28;43440;-64
2022/11/05 12:48:58;;;;;;;2.10;1.70;;;21.80;60.40;;;;;;4976494;28;43998;-62
2022/11/05 12:51:53;;;;;;;2.55;1.80;;;21.80;60.50;;;;;;4972100;28;43502;-63
2022/11/05 12:54:49;;;;;;;2.40;1.80;;;21.80;60.40;;;;;;4974625;28;43463;-63
2022/11/05 12:57:18;;;;;;;2.35;1.73;;;21.70;60.40;;;;;;4981694;28;43463;-62
2022/11/05 12:59:56;;;;;;;2.22;1.52;;;21.70;60.30;;;;;;4976758;28;43881;-63
2022/11/05 13:02:33;;;;;;;2.60;1.83;;;21.70;60.30;;;;;;4973968;28;43723;-63
2022/11/05 13:05:15;;;;;;;2.60;1.70;;;21.60;60.40;;;;;;4980320;28;43512;-63
2022/11/05 13:07:59;;;;;;;3.17;1.77;;;21.60;60.40;;;;;;4970326;28;43544;-63
2022/11/05 13:10:35;;;;;;;2.88;1.60;;;21.50;60.50;;;;;;4971183;28;43735;-62
2022/11/05 13:13:15;;;;;;;2.90;1.60;;;21.60;60.70;;;;;;4972273;28;43695;-62
2022/11/05 13:15:52;;;;;;;2.08;1.70;;;21.60;60.40;;;;;;4978313;28;43439;-62
2022/11/05 13:18:33;;;;;;;1.90;1.80;;;21.60;60.30;;;;;;4978496;28;43981;-62
2022/11/05 13:21:05;;;;;;;2.10;1.48;;;21.60;60.10;;;;;;4979618;28;43798;-62
2022/11/05 13:23:54;;;;;;;1.88;1.65;;;21.70;60.10;;;;;;4983079;28;43383;-62
2022/11/05 13:26:34;;;;;;;2.40;1.52;;;21.70;59.90;;;;;;4981998;28;43978;-62
2022/11/05 13:29:04;;;;;;;1.50;1.33;;;21.70;59.90;;;;;;4983333;28;43406;-61
2022/11/05 13:31:48;;;;;;;1.70;1.25;;;21.80;59.90;;;;;;4982487;28;43806;-62
2022/11/05 13:34:15;;;;;;;2.05;1.40;;;21.80;59.80;;;;;;4979228;28;43434;-62
2022/11/05 13:39:52;;;;;;;2.42;1.65;;;21.70;59.60;;;;;;4976920;28;43547;-62
2022/11/05 13:42:47;;;;;;;1.65;1.20;;;21.80;59.60;;;;;;4979877;28;44848;-62
2022/11/05 13:45:49;;;;;;;1.48;1.08;;;21.80;59.40;;;;;;4976561;28;43481;-61
2022/11/05 13:48:22;;;;;;;2.25;1.35;;;21.70;59.50;;;;;;4979270;28;43517;-62
2022/11/05 13:50:58;;;;;;;1.65;1.40;;;21.70;59.60;;;;;;4983280;28;43496;-62
2022/11/05 13:54:01;;;;;;;1.70;1.40;;;21.60;59.60;;;;;;4981217;28;43601;-62
2022/11/05 13:56:51;;;;;;;1.98;1.30;;;21.60;59.70;;;;;;4977726;28;43798;-62
2022/11/05 13:59:59;;;;;;;1.58;1.40;;;21.50;59.90;;;;;;4980524;28;43405;-62
2022/11/05 14:02:43;;;;;;;1.35;1.23;;;21.50;60.00;;;;;;4976217;28;43621;-62
2022/11/05 14:05:30;;;;;;;1.42;1.20;;;21.40;60.10;;;;;;4983818;28;44111;-62
2022/11/05 14:08:01;;;;;;;1.35;1.25;;;21.40;60.60;;;;;;4982339;28;43487;-62
2022/11/05 14:10:36;;;;;;;2.80;1.40;;;21.40;60.30;;;;;;4971844;28;43497;-62